Maribel — LAGU6 — position and weather

sailwx.info

Track history (hours):
 
Tides and Currents Weather Stations Pressure Air Temp Water Temp Dewpoint Dewpoint Depression Visibility Wind Speed Wind Dir Waves Ship Positions

Maribel

Last reported at 2016-Jul-18 12:33 UTC. Time now 2016-Jul-28 12:23 UTC.
Position N 33°37' W 013°27'.
Warning: this ship's position is 9 days out of date.

Length 228 m; draft 13.9 m.

Type: Ship. MMSI: 257872000.

Date/timePositionNaut miles runAvg speedWind from/ knotsBaromVisibWave heightAir tempDewpointWater temp
2016-Jul-18 12:33N 33°37' W 013°27'1312.8
2016-Jul-18 11:33N 33°49' W 013°23'5313.1
2016-Jul-18 07:32N 34°41' W 013°08'2613.1
2016-Jul-18 05:33N 35°06' W 013°01'1313.3
2016-Jul-18 04:33N 35°19' W 012°58'1312.8
2016-Jul-18 03:33N 35°31' W 012°54'1313.1
2016-Jul-18 02:33N 35°44' W 012°49'1312.9
2016-Jul-18 01:33N 35°56' W 012°46'1313.3
2016-Jul-18 00:33N 36°09' W 012°42'1413.4
2016-Jul-17 23:33N 36°22' W 012°38'1313.2
2016-Jul-17 22:33N 36°35' W 012°34'1313.3
2016-Jul-17 21:33N 36°48' W 012°30'1313.1
2016-Jul-17 20:33N 37°01' W 012°27'1313.3
2016-Jul-17 19:33N 37°14' W 012°23'1313.2
2016-Jul-17 18:33N 37°27' W 012°19'1313.5
2016-Jul-17 17:33N 37°40' W 012°15'1413.6
2016-Jul-17 16:33N 37°53' W 012°11'1313.1
2016-Jul-17 15:33N 38°06' W 012°07'1313.0
2016-Jul-17 14:33N 38°19' W 012°04'1313.0
2016-Jul-17 13:33N 38°31' W 011°60'1312.8
2016-Jul-17 12:33N 38°44' W 011°56'1312.8
2016-Jul-17 11:33N 38°56' W 011°52'1312.9
2016-Jul-17 10:33N 39°09' W 011°49'1313.4
2016-Jul-17 09:33N 39°22' W 011°44'1313.1
2016-Jul-17 08:31N 39°35' W 011°40'1313.1
2016-Jul-17 07:31N 39°48' W 011°37'1313.0
2016-Jul-17 06:31N 40°00' W 011°33'3013.2
2016-Jul-17 04:16N 40°29' W 011°23'1513.2
2016-Jul-17 03:08N 40°43' W 011°19'40513.2
2016-Jul-15 20:33N 46°54' W 007°35'12213.6
2016-Jul-15 11:33N 48°39' W 006°00'1312.6
2016-Jul-15 10:32N 48°50' W 005°51'1312.6
2016-Jul-15 09:30N 48°59' W 005°36'1312.5
2016-Jul-15 08:28N 49°05' W 005°19'1111.6
2016-Jul-15 07:30N 49°11' W 005°05'1313.8
2016-Jul-15 06:34N 49°18' W 004°48'1514.0
2016-Jul-15 05:30N 49°26' W 004°28'5313.5
2016-Jul-15 01:33N 49°52' W 003°17'1313.5
2016-Jul-15 00:33N 49°59' W 002°59'1414.2
2016-Jul-14 23:33N 50°03' W 002°37'1514.9
2016-Jul-14 22:33N 50°07' W 002°15'1615.5
2016-Jul-14 21:33N 50°11' W 001°52'1515.3
2016-Jul-14 20:33N 50°14' W 001°29'1514.6
2016-Jul-14 19:33N 50°18' W 001°07'1313.5
2016-Jul-14 18:34N 50°22' W 000°46'1312.6
2016-Jul-14 17:34N 50°25' W 000°27'1212.2
2016-Jul-14 16:33N 50°29' W 000°09'1212.1
2016-Jul-14 15:33N 50°32' E 000°10'1212.7
2016-Jul-14 14:33N 50°35' E 000°29'3313.9
2016-Jul-14 12:12N 50°55' E 001°09'914.8
2016-Jul-14 11:34N 51°01' E 001°21'1414.5
2016-Jul-14 10:33N 51°10' E 001°39'1313.2
2016-Jul-14 09:33N 51°20' E 001°52'1312.9
2016-Jul-14 08:33N 51°31' E 002°04'8213.5
2016-Jul-14 02:32N 52°27' E 003°40'1313.2
2016-Jul-14 01:34N 52°30' E 004°00'1212.4
2016-Jul-14 00:33N 52°29' E 004°20'9 9.1
2016-Jul-13 23:34N 52°28' E 004°35'1 0.9
2016-Jul-13 22:33N 52°28' E 004°37'2 2.2
2016-Jul-13 21:34N 52°27' E 004°40'4 3.5
2016-Jul-13 20:33N 52°25' E 004°45'0 0.0
2016-Jul-13 19:31N 52°25' E 004°45'0 0.0
2016-Jul-13 18:31N 52°25' E 004°45'0 0.0
2016-Jul-13 17:33N 52°25' E 004°45'0 0.0
2016-Jul-13 16:33N 52°25' E 004°45'1 0.8
2016-Jul-13 15:33N 52°25' E 004°46'1 0.7
2016-Jul-13 14:33N 52°25' E 004°47'0 0.0
2016-Jul-13 13:33N 52°25' E 004°47'0 0.0
2016-Jul-13 12:29N 52°25' E 004°47'0 0.0
2016-Jul-13 11:29N 52°25' E 004°47'0 0.0
2016-Jul-13 10:32N 52°25' E 004°47'0 0.0
2016-Jul-13 09:31N 52°25' E 004°47'0 0.0
2016-Jul-13 08:31N 52°25' E 004°47'0 0.0
2016-Jul-13 07:30N 52°25' E 004°47'0 0.0
2016-Jul-13 06:33N 52°25' E 004°47'0 0.0
2016-Jul-13 05:32N 52°25' E 004°47'0 0.0
2016-Jul-13 04:32N 52°25' E 004°47'0 0.0
2016-Jul-13 03:31N 52°25' E 004°47'0 0.0
2016-Jul-13 02:31N 52°25' E 004°47'0 0.0
2016-Jul-13 01:28N 52°25' E 004°47'0 0.0
2016-Jul-13 00:33N 52°25' E 004°47'0 0.0
2016-Jul-12 23:33N 52°25' E 004°47'0 0.0
2016-Jul-12 22:32N 52°25' E 004°47'0 0.0
2016-Jul-12 21:32N 52°25' E 004°47'0 0.0
2016-Jul-12 20:28N 52°25' E 004°47'0 0.0
2016-Jul-12 19:31N 52°25' E 004°47'0 0.0
2016-Jul-12 18:31N 52°25' E 004°47'0 0.0
2016-Jul-12 17:33N 52°25' E 004°47'0 0.0
2016-Jul-12 16:33N 52°25' E 004°47'0 0.0
2016-Jul-12 15:32N 52°25' E 004°47'0 0.0
2016-Jul-12 14:32N 52°25' E 004°47'0 0.0
2016-Jul-12 13:31N 52°25' E 004°47'0 0.0
2016-Jul-12 12:31N 52°25' E 004°47'0 0.0
2016-Jul-12 11:31N 52°25' E 004°47'0 0.0
2016-Jul-12 10:33N 52°25' E 004°47'0 0.0
2016-Jul-12 09:30N 52°25' E 004°47'0 0.0
2016-Jul-12 08:32N 52°25' E 004°47'0 0.0
2016-Jul-12 07:29N 52°25' E 004°47'0 0.0
2016-Jul-12 06:31N 52°25' E 004°47'0 0.0
2016-Jul-12 05:31N 52°25' E 004°47'0 0.0
2016-Jul-12 04:28N 52°25' E 004°47'0 0.0
2016-Jul-12 03:33N 52°25' E 004°47'0 0.0
2016-Jul-12 02:30N 52°25' E 004°47'0 0.0
2016-Jul-12 01:32N 52°25' E 004°47'0 0.0
2016-Jul-12 00:32N 52°25' E 004°47'0 0.0
2016-Jul-11 23:31N 52°25' E 004°47'0 0.0
2016-Jul-11 22:30N 52°25' E 004°47'0 0.0
2016-Jul-11 21:34N 52°25' E 004°47'0 0.0
2016-Jul-11 20:33N 52°25' E 004°47'0 0.0
2016-Jul-11 19:27N 52°25' E 004°47'0 0.0
2016-Jul-11 18:32N 52°25' E 004°47'0 0.0
2016-Jul-11 17:32N 52°25' E 004°47'0 0.0
2016-Jul-11 16:31N 52°25' E 004°47'0 0.0
2016-Jul-11 15:28N 52°25' E 004°47'0 0.0
2016-Jul-11 14:34N 52°25' E 004°47'0 0.0
2016-Jul-11 13:33N 52°25' E 004°47'0 0.0
2016-Jul-11 12:33N 52°25' E 004°47'0 0.0
2016-Jul-11 11:32N 52°25' E 004°47'0 0.0
2016-Jul-11 10:32N 52°25' E 004°47'0 0.0
2016-Jul-11 09:31N 52°25' E 004°47'0 0.0
2016-Jul-11 08:31N 52°25' E 004°47'0 0.0
2016-Jul-11 07:33N 52°25' E 004°47'0 0.0
2016-Jul-11 06:33N 52°25' E 004°47'0 0.0
2016-Jul-11 04:32N 52°25' E 004°47'0 0.0
2016-Jul-11 03:32N 52°25' E 004°47'0 0.0
2016-Jul-11 02:28N 52°25' E 004°47'0 0.0
2016-Jul-11 01:28N 52°25' E 004°47'0 0.0
2016-Jul-11 00:33N 52°25' E 004°47'0 0.0
2016-Jul-10 23:27N 52°25' E 004°47'0 0.0
2016-Jul-10 22:33N 52°25' E 004°47'0 0.0
2016-Jul-10 21:32N 52°25' E 004°47'0 0.0
2016-Jul-10 20:32N 52°25' E 004°47'0 0.0
2016-Jul-10 19:31N 52°25' E 004°47'0 0.0
2016-Jul-10 18:31N 52°25' E 004°47'0 0.0
2016-Jul-10 17:30N 52°25' E 004°47'0 0.0
2016-Jul-10 16:33N 52°25' E 004°47'0 0.0
2016-Jul-10 15:33N 52°25' E 004°47'0 0.0
2016-Jul-10 14:32N 52°25' E 004°47'0 0.0
2016-Jul-10 13:32N 52°25' E 004°47'0 0.0
2016-Jul-10 12:31N 52°25' E 004°47'0 0.0
2016-Jul-10 11:31N 52°25' E 004°47'0 0.0
2016-Jul-10 10:33N 52°25' E 004°47'0 0.0
2016-Jul-10 09:33N 52°25' E 004°47'0 0.0
2016-Jul-10 08:33N 52°25' E 004°47'0 0.0
2016-Jul-10 07:32N 52°25' E 004°47'0 0.0
2016-Jul-10 06:32N 52°25' E 004°47'0 0.0
2016-Jul-10 05:31N 52°25' E 004°47'0 0.0
2016-Jul-10 04:31N 52°25' E 004°47'0 0.0
2016-Jul-10 03:33N 52°25' E 004°47'0 0.0
2016-Jul-10 02:30N 52°25' E 004°47'0 0.0
2016-Jul-10 01:33N 52°25' E 004°47'0 0.0
2016-Jul-10 00:32N 52°25' E 004°47'0 0.0
2016-Jul-09 23:32N 52°25' E 004°47'0 0.0
2016-Jul-09 22:28N 52°25' E 004°47'0 0.0
2016-Jul-09 21:31N 52°25' E 004°47'0 0.0
2016-Jul-09 20:30N 52°25' E 004°47'0 0.0
2016-Jul-09 19:30N 52°25' E 004°47'0 0.0
2016-Jul-09 18:32N 52°25' E 004°47'0 0.0
2016-Jul-09 17:32N 52°25' E 004°47'0 0.0
2016-Jul-09 16:29N 52°25' E 004°47'0 0.0
2016-Jul-09 15:32N 52°25' E 004°47'0 0.0
2016-Jul-09 14:31N 52°25' E 004°47'0 0.0
2016-Jul-09 13:33N 52°25' E 004°47'0 0.0
2016-Jul-09 12:31N 52°25' E 004°47'0 0.0
2016-Jul-09 11:33N 52°25' E 004°47'0 0.0
2016-Jul-09 10:33N 52°25' E 004°47'0 0.0
2016-Jul-09 09:32N 52°25' E 004°47'0 0.0
2016-Jul-09 08:32N 52°25' E 004°47'0 0.0
2016-Jul-09 07:32N 52°25' E 004°47'0 0.0
2016-Jul-09 06:28N 52°25' E 004°47'0 0.0
2016-Jul-09 04:30N 52°25' E 004°47'0 0.0
2016-Jul-09 03:24N 52°25' E 004°47'0 0.0
2016-Jul-09 02:32N 52°25' E 004°47'0 0.0
2016-Jul-09 01:32N 52°25' E 004°47'0 0.0
2016-Jul-09 00:31N 52°25' E 004°47'0 0.0
2016-Jul-08 23:28N 52°25' E 004°47'0 0.0
2016-Jul-08 22:28N 52°25' E 004°47'0 0.0
2016-Jul-08 21:33N 52°25' E 004°47'0 0.0
2016-Jul-08 20:30N 52°25' E 004°47'0 0.0
2016-Jul-08 19:32N 52°25' E 004°47'0 0.0
2016-Jul-08 18:32N 52°25' E 004°47'0 0.0
2016-Jul-08 17:31N 52°25' E 004°47'0 0.0
2016-Jul-08 16:31N 52°25' E 004°47'0 0.0
2016-Jul-08 15:31N 52°25' E 004°47'0 0.0
2016-Jul-08 14:33N 52°25' E 004°47'0 0.0
2016-Jul-08 13:33N 52°25' E 004°47'  
Track history (hours):
 
Tides and Currents Weather Stations Pressure Air Temp Water Temp Dewpoint Dewpoint Depression Visibility Wind Speed Wind Dir Waves Ship Positions

Maribel

Last reported at 2016-Jul-18 12:33 UTC. Time now 2016-Jul-28 12:23 UTC.
Position N 33°37' W 013°27'.
Warning: this ship's position is 9 days out of date.

Length 228 m; draft 13.9 m.

Type: Ship. MMSI: 257872000.

Date/timePositionNaut miles runAvg speedWind from/ knotsBaromVisibWave heightAir tempDewpointWater temp
2016-Jul-18 12:33N 33°37' W 013°27'1312.8
2016-Jul-18 11:33N 33°49' W 013°23'5313.1
2016-Jul-18 07:32N 34°41' W 013°08'2613.1
2016-Jul-18 05:33N 35°06' W 013°01'1313.3
2016-Jul-18 04:33N 35°19' W 012°58'1312.8
2016-Jul-18 03:33N 35°31' W 012°54'1313.1
2016-Jul-18 02:33N 35°44' W 012°49'1312.9
2016-Jul-18 01:33N 35°56' W 012°46'1313.3
2016-Jul-18 00:33N 36°09' W 012°42'1413.4
2016-Jul-17 23:33N 36°22' W 012°38'1313.2
2016-Jul-17 22:33N 36°35' W 012°34'1313.3
2016-Jul-17 21:33N 36°48' W 012°30'1313.1
2016-Jul-17 20:33N 37°01' W 012°27'1313.3
2016-Jul-17 19:33N 37°14' W 012°23'1313.2
2016-Jul-17 18:33N 37°27' W 012°19'1313.5
2016-Jul-17 17:33N 37°40' W 012°15'1413.6
2016-Jul-17 16:33N 37°53' W 012°11'1313.1
2016-Jul-17 15:33N 38°06' W 012°07'1313.0
2016-Jul-17 14:33N 38°19' W 012°04'1313.0
2016-Jul-17 13:33N 38°31' W 011°60'1312.8
2016-Jul-17 12:33N 38°44' W 011°56'1312.8
2016-Jul-17 11:33N 38°56' W 011°52'1312.9
2016-Jul-17 10:33N 39°09' W 011°49'1313.4
2016-Jul-17 09:33N 39°22' W 011°44'1313.1
2016-Jul-17 08:31N 39°35' W 011°40'1313.1
2016-Jul-17 07:31N 39°48' W 011°37'1313.0
2016-Jul-17 06:31N 40°00' W 011°33'3013.2
2016-Jul-17 04:16N 40°29' W 011°23'1513.2
2016-Jul-17 03:08N 40°43' W 011°19'40513.2
2016-Jul-15 20:33N 46°54' W 007°35'12213.6
2016-Jul-15 11:33N 48°39' W 006°00'1312.6
2016-Jul-15 10:32N 48°50' W 005°51'1312.6
2016-Jul-15 09:30N 48°59' W 005°36'1312.5
2016-Jul-15 08:28N 49°05' W 005°19'1111.6
2016-Jul-15 07:30N 49°11' W 005°05'1313.8
2016-Jul-15 06:34N 49°18' W 004°48'1514.0
2016-Jul-15 05:30N 49°26' W 004°28'5313.5
2016-Jul-15 01:33N 49°52' W 003°17'1313.5
2016-Jul-15 00:33N 49°59' W 002°59'1414.2
2016-Jul-14 23:33N 50°03' W 002°37'1514.9
2016-Jul-14 22:33N 50°07' W 002°15'1615.5
2016-Jul-14 21:33N 50°11' W 001°52'1515.3
2016-Jul-14 20:33N 50°14' W 001°29'1514.6
2016-Jul-14 19:33N 50°18' W 001°07'1313.5
2016-Jul-14 18:34N 50°22' W 000°46'1312.6
2016-Jul-14 17:34N 50°25' W 000°27'1212.2
2016-Jul-14 16:33N 50°29' W 000°09'1212.1
2016-Jul-14 15:33N 50°32' E 000°10'1212.7
2016-Jul-14 14:33N 50°35' E 000°29'3313.9
2016-Jul-14 12:12N 50°55' E 001°09'914.8
2016-Jul-14 11:34N 51°01' E 001°21'1414.5
2016-Jul-14 10:33N 51°10' E 001°39'1313.2
2016-Jul-14 09:33N 51°20' E 001°52'1312.9
2016-Jul-14 08:33N 51°31' E 002°04'8213.5
2016-Jul-14 02:32N 52°27' E 003°40'1313.2
2016-Jul-14 01:34N 52°30' E 004°00'1212.4
2016-Jul-14 00:33N 52°29' E 004°20'9 9.1
2016-Jul-13 23:34N 52°28' E 004°35'1 0.9
2016-Jul-13 22:33N 52°28' E 004°37'2 2.2
2016-Jul-13 21:34N 52°27' E 004°40'4 3.5
2016-Jul-13 20:33N 52°25' E 004°45'0 0.0
2016-Jul-13 19:31N 52°25' E 004°45'0 0.0
2016-Jul-13 18:31N 52°25' E 004°45'0 0.0
2016-Jul-13 17:33N 52°25' E 004°45'0 0.0
2016-Jul-13 16:33N 52°25' E 004°45'1 0.8
2016-Jul-13 15:33N 52°25' E 004°46'1 0.7
2016-Jul-13 14:33N 52°25' E 004°47'0 0.0
2016-Jul-13 13:33N 52°25' E 004°47'0 0.0
2016-Jul-13 12:29N 52°25' E 004°47'0 0.0
2016-Jul-13 11:29N 52°25' E 004°47'0 0.0
2016-Jul-13 10:32N 52°25' E 004°47'0 0.0
2016-Jul-13 09:31N 52°25' E 004°47'0 0.0
2016-Jul-13 08:31N 52°25' E 004°47'0 0.0
2016-Jul-13 07:30N 52°25' E 004°47'0 0.0
2016-Jul-13 06:33N 52°25' E 004°47'0 0.0
2016-Jul-13 05:32N 52°25' E 004°47'0 0.0
2016-Jul-13 04:32N 52°25' E 004°47'0 0.0
2016-Jul-13 03:31N 52°25' E 004°47'0 0.0
2016-Jul-13 02:31N 52°25' E 004°47'0 0.0
2016-Jul-13 01:28N 52°25' E 004°47'0 0.0
2016-Jul-13 00:33N 52°25' E 004°47'0 0.0
2016-Jul-12 23:33N 52°25' E 004°47'0 0.0
2016-Jul-12 22:32N 52°25' E 004°47'0 0.0
2016-Jul-12 21:32N 52°25' E 004°47'0 0.0
2016-Jul-12 20:28N 52°25' E 004°47'0 0.0
2016-Jul-12 19:31N 52°25' E 004°47'0 0.0
2016-Jul-12 18:31N 52°25' E 004°47'0 0.0
2016-Jul-12 17:33N 52°25' E 004°47'0 0.0
2016-Jul-12 16:33N 52°25' E 004°47'0 0.0
2016-Jul-12 15:32N 52°25' E 004°47'0 0.0
2016-Jul-12 14:32N 52°25' E 004°47'0 0.0
2016-Jul-12 13:31N 52°25' E 004°47'0 0.0
2016-Jul-12 12:31N 52°25' E 004°47'0 0.0
2016-Jul-12 11:31N 52°25' E 004°47'0 0.0
2016-Jul-12 10:33N 52°25' E 004°47'0 0.0
2016-Jul-12 09:30N 52°25' E 004°47'0 0.0
2016-Jul-12 08:32N 52°25' E 004°47'0 0.0
2016-Jul-12 07:29N 52°25' E 004°47'0 0.0
2016-Jul-12 06:31N 52°25' E 004°47'0 0.0
2016-Jul-12 05:31N 52°25' E 004°47'0 0.0
2016-Jul-12 04:28N 52°25' E 004°47'0 0.0
2016-Jul-12 03:33N 52°25' E 004°47'0 0.0
2016-Jul-12 02:30N 52°25' E 004°47'0 0.0
2016-Jul-12 01:32N 52°25' E 004°47'0 0.0
2016-Jul-12 00:32N 52°25' E 004°47'0 0.0
2016-Jul-11 23:31N 52°25' E 004°47'0 0.0
2016-Jul-11 22:30N 52°25' E 004°47'0 0.0
2016-Jul-11 21:34N 52°25' E 004°47'0 0.0
2016-Jul-11 20:33N 52°25' E 004°47'0 0.0
2016-Jul-11 19:27N 52°25' E 004°47'0 0.0
2016-Jul-11 18:32N 52°25' E 004°47'0 0.0
2016-Jul-11 17:32N 52°25' E 004°47'0 0.0
2016-Jul-11 16:31N 52°25' E 004°47'0 0.0
2016-Jul-11 15:28N 52°25' E 004°47'0 0.0
2016-Jul-11 14:34N 52°25' E 004°47'0 0.0
2016-Jul-11 13:33N 52°25' E 004°47'0 0.0
2016-Jul-11 12:33N 52°25' E 004°47'0 0.0
2016-Jul-11 11:32N 52°25' E 004°47'0 0.0
2016-Jul-11 10:32N 52°25' E 004°47'0 0.0
2016-Jul-11 09:31N 52°25' E 004°47'0 0.0
2016-Jul-11 08:31N 52°25' E 004°47'0 0.0
2016-Jul-11 07:33N 52°25' E 004°47'0 0.0
2016-Jul-11 06:33N 52°25' E 004°47'0 0.0
2016-Jul-11 04:32N 52°25' E 004°47'0 0.0
2016-Jul-11 03:32N 52°25' E 004°47'0 0.0
2016-Jul-11 02:28N 52°25' E 004°47'0 0.0
2016-Jul-11 01:28N 52°25' E 004°47'0 0.0
2016-Jul-11 00:33N 52°25' E 004°47'0 0.0
2016-Jul-10 23:27N 52°25' E 004°47'0 0.0
2016-Jul-10 22:33N 52°25' E 004°47'0 0.0
2016-Jul-10 21:32N 52°25' E 004°47'0 0.0
2016-Jul-10 20:32N 52°25' E 004°47'0 0.0
2016-Jul-10 19:31N 52°25' E 004°47'0 0.0
2016-Jul-10 18:31N 52°25' E 004°47'0 0.0
2016-Jul-10 17:30N 52°25' E 004°47'0 0.0
2016-Jul-10 16:33N 52°25' E 004°47'0 0.0
2016-Jul-10 15:33N 52°25' E 004°47'0 0.0
2016-Jul-10 14:32N 52°25' E 004°47'0 0.0
2016-Jul-10 13:32N 52°25' E 004°47'0 0.0
2016-Jul-10 12:31N 52°25' E 004°47'0 0.0
2016-Jul-10 11:31N 52°25' E 004°47'0 0.0
2016-Jul-10 10:33N 52°25' E 004°47'0 0.0
2016-Jul-10 09:33N 52°25' E 004°47'0 0.0
2016-Jul-10 08:33N 52°25' E 004°47'0 0.0
2016-Jul-10 07:32N 52°25' E 004°47'0 0.0
2016-Jul-10 06:32N 52°25' E 004°47'0 0.0
2016-Jul-10 05:31N 52°25' E 004°47'0 0.0
2016-Jul-10 04:31N 52°25' E 004°47'0 0.0
2016-Jul-10 03:33N 52°25' E 004°47'0 0.0
2016-Jul-10 02:30N 52°25' E 004°47'0 0.0
2016-Jul-10 01:33N 52°25' E 004°47'0 0.0
2016-Jul-10 00:32N 52°25' E 004°47'0 0.0
2016-Jul-09 23:32N 52°25' E 004°47'0 0.0
2016-Jul-09 22:28N 52°25' E 004°47'0 0.0
2016-Jul-09 21:31N 52°25' E 004°47'0 0.0
2016-Jul-09 20:30N 52°25' E 004°47'0 0.0
2016-Jul-09 19:30N 52°25' E 004°47'0 0.0
2016-Jul-09 18:32N 52°25' E 004°47'0 0.0
2016-Jul-09 17:32N 52°25' E 004°47'0 0.0
2016-Jul-09 16:29N 52°25' E 004°47'0 0.0
2016-Jul-09 15:32N 52°25' E 004°47'0 0.0
2016-Jul-09 14:31N 52°25' E 004°47'0 0.0
2016-Jul-09 13:33N 52°25' E 004°47'0 0.0
2016-Jul-09 12:31N 52°25' E 004°47'0 0.0
2016-Jul-09 11:33N 52°25' E 004°47'0 0.0
2016-Jul-09 10:33N 52°25' E 004°47'0 0.0
2016-Jul-09 09:32N 52°25' E 004°47'0 0.0
2016-Jul-09 08:32N 52°25' E 004°47'0 0.0
2016-Jul-09 07:32N 52°25' E 004°47'0 0.0
2016-Jul-09 06:28N 52°25' E 004°47'0 0.0
2016-Jul-09 04:30N 52°25' E 004°47'0 0.0
2016-Jul-09 03:24N 52°25' E 004°47'0 0.0
2016-Jul-09 02:32N 52°25' E 004°47'0 0.0
2016-Jul-09 01:32N 52°25' E 004°47'0 0.0
2016-Jul-09 00:31N 52°25' E 004°47'0 0.0
2016-Jul-08 23:28N 52°25' E 004°47'0 0.0
2016-Jul-08 22:28N 52°25' E 004°47'0 0.0
2016-Jul-08 21:33N 52°25' E 004°47'0 0.0
2016-Jul-08 20:30N 52°25' E 004°47'0 0.0
2016-Jul-08 19:32N 52°25' E 004°47'0 0.0
2016-Jul-08 18:32N 52°25' E 004°47'0 0.0
2016-Jul-08 17:31N 52°25' E 004°47'0 0.0
2016-Jul-08 16:31N 52°25' E 004°47'0 0.0
2016-Jul-08 15:31N 52°25' E 004°47'0 0.0
2016-Jul-08 14:33N 52°25' E 004°47'0 0.0
2016-Jul-08 13:33N 52°25' E 004°47'  

Dump ship's entire track history